Time;durP1;ratioP1;P1;durP2;ratioP2;P2;SDS_P1;SDS_P2;PMS_P1;PMS_P2;Temp;Humidity;BMP_temperature;BMP_pressure;BME280_temperature;BME280_humidity;BME280_pressure;Samples;Min_cycle;Max_cycle;Signal;HPM_P1;HPM_P2
2021/01/22 00:00:46;;;;;;;6.43;2.70;;;10.50;93.70;;;;;;5053632;28;20020;-69
2021/01/22 00:03:11;;;;;;;4.20;2.30;;;10.50;93.50;;;;;;5052403;28;20127;-69
2021/01/22 00:05:37;;;;;;;4.40;2.60;;;10.60;93.40;;;;;;5056230;28;20103;-69
2021/01/22 00:08:02;;;;;;;5.25;2.47;;;10.50;93.30;;;;;;5061551;28;20032;-69
2021/01/22 00:10:28;;;;;;;6.13;3.03;;;10.50;93.30;;;;;;5069822;28;20021;-69
2021/01/22 00:12:53;;;;;;;5.68;3.38;;;10.50;93.20;;;;;;5053361;28;20366;-69
2021/01/22 00:15:19;;;;;;;7.07;3.28;;;10.40;93.10;;;;;;5053507;28;20108;-69
2021/01/22 00:17:44;;;;;;;6.07;3.38;;;10.50;93.00;;;;;;5052924;28;20551;-69
2021/01/22 00:20:10;;;;;;;6.40;3.67;;;10.40;92.80;;;;;;5052347;28;20363;-69
2021/01/22 00:22:36;;;;;;;6.72;3.40;;;10.40;92.60;;;;;;5053548;28;20032;-70
2021/01/22 00:25:02;;;;;;;4.90;3.40;;;10.40;92.60;;;;;;5052955;28;20029;-69
2021/01/22 00:27:28;;;;;;;6.50;3.65;;;10.40;92.60;;;;;;5067571;28;20028;-70
2021/01/22 00:29:54;;;;;;;5.28;3.17;;;10.40;92.30;;;;;;5073168;28;20021;-69
2021/01/22 00:32:19;;;;;;;5.75;3.60;;;10.40;92.20;;;;;;5053741;28;20025;-69
2021/01/22 00:34:46;;;;;;;6.07;4.00;;;10.40;92.20;;;;;;5074214;28;20449;-69
2021/01/22 00:37:12;;;;;;;7.38;4.13;;;10.40;91.90;;;;;;5075869;28;20032;-69
2021/01/22 00:39:37;;;;;;;5.82;3.83;;;10.30;91.70;;;;;;5093134;28;20023;-69
2021/01/22 00:42:03;;;;;;;5.28;3.88;;;10.30;91.90;;;;;;5068385;28;20439;-69
2021/01/22 00:44:28;;;;;;;5.78;3.33;;;10.30;91.60;;;;;;5065053;28;20044;-69
2021/01/22 00:46:54;;;;;;;6.78;3.97;;;10.30;91.50;;;;;;5052547;28;20052;-70
2021/01/22 00:49:19;;;;;;;6.20;3.80;;;10.30;91.50;;;;;;5051861;28;20029;-70
2021/01/22 00:51:45;;;;;;;5.95;3.60;;;10.30;91.60;;;;;;5052079;28;20107;-70
2021/01/22 00:54:10;;;;;;;6.18;3.28;;;10.30;91.50;;;;;;5052149;28;20032;-70
2021/01/22 00:56:36;;;;;;;5.68;3.13;;;10.30;91.50;;;;;;5052425;28;20028;-70
2021/01/22 00:59:01;;;;;;;5.45;3.22;;;10.30;91.40;;;;;;5052732;28;20028;-70
2021/01/22 01:01:27;;;;;;;4.95;3.03;;;10.40;91.50;;;;;;5052964;28;20119;-70
2021/01/22 01:03:52;;;;;;;6.20;3.20;;;10.30;91.40;;;;;;5052369;28;20028;-70
2021/01/22 01:06:18;;;;;;;5.65;3.10;;;10.40;91.40;;;;;;5061022;28;20468;-70
2021/01/22 01:08:43;;;;;;;5.88;2.97;;;10.40;91.40;;;;;;5052538;28;20026;-70
2021/01/22 01:11:09;;;;;;;5.00;2.95;;;10.40;91.40;;;;;;5068454;28;20559;-70
2021/01/22 01:13:34;;;;;;;3.60;2.40;;;10.40;91.50;;;;;;5072241;28;20090;-70
2021/01/22 01:16:00;;;;;;;4.38;2.75;;;10.40;91.60;;;;;;5062856;28;20023;-70
2021/01/22 01:18:26;;;;;;;4.10;2.05;;;10.50;91.60;;;;;;5050989;28;20037;-70
2021/01/22 01:20:52;;;;;;;4.78;2.40;;;10.50;91.60;;;;;;5052272;28;20112;-70
2021/01/22 01:23:19;;;;;;;5.20;2.08;;;10.50;91.70;;;;;;5061280;28;20029;-70
2021/01/22 01:25:45;;;;;;;2.65;1.50;;;10.60;91.70;;;;;;5065919;28;20096;-70
2021/01/22 01:28:10;;;;;;;3.70;1.98;;;10.70;91.70;;;;;;5050713;28;20119;-69
2021/01/22 01:30:36;;;;;;;3.92;2.05;;;10.70;91.70;;;;;;5055127;28;20051;-69
2021/01/22 01:33:03;;;;;;;4.28;1.77;;;10.70;91.70;;;;;;5071176;28;20070;-69
2021/01/22 01:35:28;;;;;;;2.70;1.50;;;10.80;91.80;;;;;;5067913;28;20116;-69
2021/01/22 01:37:54;;;;;;;2.67;1.60;;;10.80;91.80;;;;;;5051998;28;20132;-70
2021/01/22 01:40:19;;;;;;;2.03;1.30;;;10.90;91.90;;;;;;5051391;28;20021;-69
2021/01/22 01:42:45;;;;;;;3.13;1.70;;;10.90;91.80;;;;;;5057472;28;20029;-70
2021/01/22 01:45:12;;;;;;;2.35;1.40;;;10.90;91.90;;;;;;5070426;28;20135;-70
2021/01/22 01:47:37;;;;;;;1.85;1.30;;;11.00;91.80;;;;;;5050499;28;20036;-69
2021/01/22 01:50:04;;;;;;;2.33;1.17;;;11.00;91.80;;;;;;5051316;28;20047;-70
2021/01/22 01:52:29;;;;;;;1.40;0.95;;;11.00;91.80;;;;;;5051864;28;20025;-70
2021/01/22 01:54:55;;;;;;;2.70;1.30;;;11.10;91.80;;;;;;5051525;28;20078;-70
2021/01/22 01:57:20;;;;;;;1.13;0.88;;;11.10;91.80;;;;;;5050688;28;20028;-70
2021/01/22 01:59:46;;;;;;;1.92;1.13;;;11.10;91.80;;;;;;5050473;28;20090;-69
2021/01/22 02:02:13;;;;;;;1.48;0.95;;;11.10;91.80;;;;;;5053728;28;20028;-69
2021/01/22 02:04:38;;;;;;;1.08;0.95;;;11.20;91.80;;;;;;5069959;28;20041;-70
2021/01/22 02:07:04;;;;;;;1.00;0.88;;;11.20;91.80;;;;;;5054478;28;20104;-70
2021/01/22 02:09:30;;;;;;;1.40;0.88;;;11.30;91.70;;;;;;5051351;28;20017;-70
2021/01/22 02:11:56;;;;;;;1.33;1.00;;;11.30;91.70;;;;;;5059756;28;20040;-70
2021/01/22 02:14:22;;;;;;;1.35;0.90;;;11.40;91.60;;;;;;5061203;28;20029;-69
2021/01/22 02:16:49;;;;;;;0.70;0.70;;;11.40;91.60;;;;;;5050831;28;20473;-68
2021/01/22 02:19:17;;;;;;;1.02;0.90;;;11.50;91.50;;;;;;5051044;28;20033;-69
2021/01/22 02:21:43;;;;;;;0.82;0.60;;;11.50;91.40;;;;;;5054910;28;20029;-69
2021/01/22 02:24:13;;;;;;;1.35;0.93;;;11.50;91.30;;;;;;5055269;28;20457;-68
2021/01/22 02:26:43;;;;;;;1.90;0.73;;;11.60;91.20;;;;;;5070447;28;20546;-68
2021/01/22 02:29:09;;;;;;;1.08;0.80;;;11.60;91.10;;;;;;5055647;28;20416;-68
2021/01/22 02:31:40;;;;;;;1.77;0.85;;;11.60;91.00;;;;;;5051041;28;20033;-68
2021/01/22 02:34:09;;;;;;;0.95;0.90;;;11.60;90.80;;;;;;5050157;28;20417;-68
2021/01/22 02:36:37;;;;;;;1.00;0.90;;;11.70;90.80;;;;;;5050660;28;20029;-68
2021/01/22 02:39:04;;;;;;;1.60;0.73;;;11.70;90.70;;;;;;5050083;28;20037;-68
2021/01/22 02:41:31;;;;;;;1.35;0.80;;;11.70;90.60;;;;;;5051069;28;20405;-68
2021/01/22 02:43:57;;;;;;;1.83;0.90;;;11.70;90.50;;;;;;5056380;28;20041;-68
2021/01/22 02:46:23;;;;;;;0.65;0.57;;;11.80;90.40;;;;;;5053537;28;20032;-68
2021/01/22 02:48:50;;;;;;;2.75;0.68;;;11.80;90.30;;;;;;5050023;28;20036;-68
2021/01/22 02:51:15;;;;;;;1.02;0.80;;;11.80;90.20;;;;;;5050910;28;20076;-68
2021/01/22 02:53:41;;;;;;;0.50;0.50;;;11.90;90.10;;;;;;5050911;28;20052;-68
2021/01/22 02:56:29;;;;;;;1.67;0.90;;;11.90;90.00;;;;;;5050531;28;20043;-68
2021/01/22 02:59:22;;;;;;;3.13;1.17;;;11.90;89.80;;;;;;5048819;28;20112;-68
2021/01/22 03:02:01;;;;;;;0.75;0.55;;;11.90;89.50;;;;;;5050675;28;20106;-68
2021/01/22 03:04:28;;;;;;;2.72;0.82;;;11.90;89.00;;;;;;5050449;28;20021;-69
2021/01/22 03:06:55;;;;;;;1.80;0.80;;;11.90;88.40;;;;;;5050709;28;20482;-69
2021/01/22 03:09:22;;;;;;;0.68;0.60;;;11.80;88.50;;;;;;5052922;28;20028;-68
2021/01/22 03:11:51;;;;;;;1.45;0.77;;;11.80;88.20;;;;;;5067374;28;20040;-69
2021/01/22 03:14:19;;;;;;;1.17;0.73;;;11.80;87.90;;;;;;5064126;28;20425;-69
2021/01/22 03:16:45;;;;;;;2.88;0.80;;;11.80;87.60;;;;;;5054365;28;20033;-69
2021/01/22 03:19:10;;;;;;;2.83;1.10;;;11.80;87.60;;;;;;5053320;28;20409;-69
2021/01/22 03:21:35;;;;;;;1.33;0.75;;;11.80;87.60;;;;;;5054788;28;20025;-67
2021/01/22 03:24:01;;;;;;;0.68;0.52;;;11.80;87.40;;;;;;5054782;28;20063;-67
2021/01/22 03:26:26;;;;;;;1.15;0.80;;;11.80;87.30;;;;;;5054531;28;20029;-67
2021/01/22 03:28:52;;;;;;;1.13;0.80;;;11.80;87.00;;;;;;5053967;28;20492;-67
2021/01/22 03:31:18;;;;;;;1.60;0.88;;;11.80;86.90;;;;;;5054540;28;20017;-68
2021/01/22 03:33:46;;;;;;;1.05;0.73;;;11.70;86.70;;;;;;5055602;28;20036;-68
2021/01/22 03:36:12;;;;;;;0.82;0.63;;;11.70;86.50;;;;;;5054713;28;20025;-69
2021/01/22 03:38:38;;;;;;;1.20;0.80;;;11.70;86.50;;;;;;5054980;28;20055;-68
2021/01/22 03:41:03;;;;;;;1.52;0.90;;;11.70;86.30;;;;;;5074044;28;20116;-68
2021/01/22 03:43:29;;;;;;;0.80;0.60;;;11.70;86.30;;;;;;5067023;28;20033;-70
2021/01/22 03:45:55;;;;;;;2.05;0.63;;;11.70;86.10;;;;;;5063521;28;20071;-68
2021/01/22 03:48:20;;;;;;;2.58;0.75;;;11.70;86.00;;;;;;5056854;28;20032;-69
2021/01/22 03:50:46;;;;;;;0.90;0.80;;;11.70;85.80;;;;;;5052281;28;20112;-69
2021/01/22 03:53:12;;;;;;;0.80;0.80;;;11.60;85.70;;;;;;5054237;28;20481;-69
2021/01/22 03:55:37;;;;;;;0.82;0.65;;;11.70;85.60;;;;;;5054697;28;20489;-70
2021/01/22 03:58:03;;;;;;;1.85;0.98;;;11.70;85.00;;;;;;5053759;28;20036;-70
2021/01/22 04:00:30;;;;;;;1.48;0.85;;;11.70;84.90;;;;;;5068367;28;20086;-70
2021/01/22 04:02:56;;;;;;;1.85;0.80;;;11.60;84.70;;;;;;5061974;28;20052;-70
2021/01/22 04:05:21;;;;;;;0.82;0.65;;;11.60;84.60;;;;;;5053420;28;20587;-70
2021/01/22 04:07:47;;;;;;;1.25;0.77;;;11.60;84.40;;;;;;5053981;28;20033;-70
2021/01/22 04:10:12;;;;;;;1.40;0.88;;;11.60;84.30;;;;;;5053658;28;20440;-70
2021/01/22 04:12:37;;;;;;;1.20;0.80;;;11.60;84.00;;;;;;5053705;28;20025;-70
2021/01/22 04:15:04;;;;;;;2.08;0.95;;;11.60;83.80;;;;;;5066186;28;20025;-70
2021/01/22 04:17:30;;;;;;;0.85;0.73;;;11.60;83.70;;;;;;5054358;28;20346;-70
2021/01/22 04:19:56;;;;;;;0.85;0.70;;;11.60;83.50;;;;;;5053020;28;20095;-70
2021/01/22 04:22:21;;;;;;;1.52;0.90;;;11.70;83.60;;;;;;5068378;28;20112;-70
2021/01/22 04:24:47;;;;;;;1.35;0.77;;;11.70;83.40;;;;;;5058355;28;20075;-70
2021/01/22 04:27:12;;;;;;;1.50;0.95;;;11.70;83.30;;;;;;5052385;28;20056;-70
2021/01/22 04:29:37;;;;;;;1.38;0.60;;;11.60;83.10;;;;;;5052872;28;20460;-70
2021/01/22 04:32:03;;;;;;;1.10;0.82;;;11.60;83.30;;;;;;5053387;28;20056;-70
2021/01/22 04:34:29;;;;;;;0.90;0.63;;;11.60;82.60;;;;;;5053055;28;20420;-70
2021/01/22 04:36:55;;;;;;;0.93;0.70;;;11.60;82.70;;;;;;5052987;28;20044;-69
2021/01/22 04:39:20;;;;;;;1.33;0.82;;;11.60;82.70;;;;;;5053223;28;20025;-70
2021/01/22 04:41:46;;;;;;;1.58;1.05;;;11.60;82.70;;;;;;5053102;28;20113;-69
2021/01/22 04:44:12;;;;;;;1.25;0.82;;;11.60;82.60;;;;;;5060299;28;20125;-69
2021/01/22 04:46:37;;;;;;;1.58;0.60;;;11.60;82.40;;;;;;5072718;28;20024;-69
2021/01/22 04:49:04;;;;;;;3.00;0.90;;;11.60;82.60;;;;;;5068864;28;20013;-69
2021/01/22 04:51:30;;;;;;;1.38;1.00;;;11.60;82.40;;;;;;5071521;28;20385;-69
2021/01/22 04:54:02;;;;;;;1.05;0.70;;;11.60;82.40;;;;;;5052996;28;20037;-69
2021/01/22 04:56:31;;;;;;;1.50;0.90;;;11.60;82.20;;;;;;5052473;28;20150;-69
2021/01/22 04:58:59;;;;;;;1.40;0.82;;;11.60;82.20;;;;;;5064097;28;20037;-69
2021/01/22 05:01:26;;;;;;;1.33;1.00;;;11.60;82.20;;;;;;5052375;28;20021;-69
2021/01/22 05:03:52;;;;;;;1.10;0.77;;;11.50;82.20;;;;;;5064004;28;20036;-70
2021/01/22 05:06:17;;;;;;;5.47;1.10;;;11.50;82.20;;;;;;5052497;28;20035;-70
2021/01/22 05:08:43;;;;;;;1.70;1.08;;;11.50;82.20;;;;;;5052150;28;20028;-70
2021/01/22 05:11:08;;;;;;;1.33;0.98;;;11.40;82.20;;;;;;5052457;28;20117;-70
2021/01/22 05:13:36;;;;;;;1.15;0.85;;;11.40;82.30;;;;;;5052102;28;20037;-70
2021/01/22 05:16:16;;;;;;;1.10;0.82;;;11.40;82.10;;;;;;5052073;28;20033;-70
2021/01/22 05:18:42;;;;;;;1.27;0.70;;;11.40;82.00;;;;;;5060408;28;20401;-70
2021/01/22 05:21:09;;;;;;;2.72;1.00;;;11.30;82.10;;;;;;5052607;28;20021;-70
2021/01/22 05:23:37;;;;;;;1.05;0.70;;;11.30;82.00;;;;;;5051962;28;20029;-70
2021/01/22 05:26:10;;;;;;;1.48;1.00;;;11.30;81.80;;;;;;5063095;28;20025;-70
2021/01/22 05:28:40;;;;;;;1.55;1.00;;;11.30;81.70;;;;;;5066025;28;20618;-70
2021/01/22 05:31:09;;;;;;;2.10;0.90;;;11.30;81.90;;;;;;5061406;28;20021;-70
2021/01/22 05:33:36;;;;;;;0.57;0.57;;;11.30;81.80;;;;;;5052056;28;20037;-70
2021/01/22 05:36:22;;;;;;;1.40;0.80;;;11.30;81.90;;;;;;5052685;28;20112;-70
2021/01/22 05:38:47;;;;;;;2.45;1.10;;;11.20;81.80;;;;;;5052405;28;20032;-70
2021/01/22 05:41:13;;;;;;;0.88;0.75;;;11.20;81.70;;;;;;5061186;28;20047;-70
2021/01/22 05:43:39;;;;;;;1.83;1.10;;;11.20;81.80;;;;;;5065946;28;20112;-70
2021/01/22 05:46:12;;;;;;;1.75;0.90;;;11.20;81.90;;;;;;5052120;28;20086;-70
2021/01/22 05:48:38;;;;;;;1.38;0.77;;;11.20;81.80;;;;;;5052281;28;20032;-70
2021/01/22 05:51:04;;;;;;;1.67;1.00;;;11.20;82.30;;;;;;5071711;28;20025;-69
2021/01/22 05:53:30;;;;;;;1.85;0.93;;;11.10;81.80;;;;;;5065944;28;20028;-70
2021/01/22 05:56:11;;;;;;;1.13;0.90;;;11.10;81.90;;;;;;5051817;28;20060;-70
2021/01/22 05:58:38;;;;;;;1.95;1.20;;;11.10;81.80;;;;;;5051312;28;20033;-72
2021/01/22 06:01:15;;;;;;;3.75;1.30;;;11.10;82.00;;;;;;5051833;28;20025;-75
2021/01/22 06:03:43;;;;;;;1.05;0.90;;;11.10;82.00;;;;;;5051078;28;20033;-72
2021/01/22 06:06:10;;;;;;;2.00;1.30;;;11.10;82.10;;;;;;5055212;28;20028;-71
2021/01/22 06:08:52;;;;;;;2.13;1.10;;;11.00;82.10;;;;;;5055668;28;20033;-70
2021/01/22 06:11:22;;;;;;;1.48;1.00;;;11.10;82.20;;;;;;5062836;28;20025;-71
2021/01/22 06:13:50;;;;;;;3.40;1.17;;;11.10;82.20;;;;;;5050477;28;21318;-70
2021/01/22 06:16:18;;;;;;;1.80;1.30;;;11.10;82.30;;;;;;5051280;28;20061;-71
2021/01/22 06:18:55;;;;;;;1.77;1.02;;;11.10;82.30;;;;;;5053812;28;20048;-71
2021/01/22 06:21:24;;;;;;;2.15;1.00;;;11.10;82.10;;;;;;5054078;28;20040;-70
2021/01/22 06:23:51;;;;;;;2.28;0.98;;;11.10;82.30;;;;;;5051560;28;20025;-70
2021/01/22 06:26:18;;;;;;;1.90;1.15;;;11.10;82.30;;;;;;5051336;28;20075;-71
2021/01/22 06:28:44;;;;;;;2.78;1.30;;;11.10;82.30;;;;;;5065637;28;20519;-71
2021/01/22 06:31:10;;;;;;;0.90;0.80;;;11.10;82.40;;;;;;5051285;28;20029;-71
2021/01/22 06:33:36;;;;;;;2.15;1.08;;;11.10;82.50;;;;;;5053656;28;20028;-70
2021/01/22 06:36:06;;;;;;;4.50;1.30;;;11.10;82.60;;;;;;5054259;28;20123;-70
2021/01/22 06:38:33;;;;;;;2.65;1.20;;;11.10;82.70;;;;;;5051065;28;20128;-70
2021/01/22 06:40:59;;;;;;;1.92;1.30;;;11.10;82.70;;;;;;5050750;28;20497;-70
2021/01/22 06:43:26;;;;;;;2.40;1.02;;;11.10;82.80;;;;;;5051430;28;20048;-70
2021/01/22 06:46:00;;;;;;;2.97;1.15;;;11.10;82.90;;;;;;5051722;28;20064;-70
2021/01/22 06:48:27;;;;;;;;;;;11.10;83.00;;;;;;5055535;28;20108;-71
2021/01/22 06:51:13;;;;;;;1.25;0.82;;;11.10;83.00;;;;;;5054796;28;19908;-70
2021/01/22 06:54:09;;;;;;;2.00;1.20;;;11.00;83.00;;;;;;5058183;28;20083;-70
2021/01/22 06:56:36;;;;;;;;;;;11.10;83.10;;;;;;5060283;28;20083;-70
2021/01/22 06:59:23;;;;;;;2.58;1.08;;;11.00;83.20;;;;;;5056735;28;20018;-70
2021/01/22 07:01:49;;;;;;;2.55;1.50;;;11.00;83.40;;;;;;5075009;28;20028;-70
2021/01/22 07:04:33;;;;;;;2.17;1.30;;;11.00;83.40;;;;;;5056476;28;20029;-70
2021/01/22 07:07:03;;;;;;;3.20;1.30;;;11.10;83.60;;;;;;5055199;28;20040;-71
2021/01/22 07:09:45;;;;;;;2.28;1.17;;;11.10;83.70;;;;;;5054386;28;20489;-70
2021/01/22 07:12:15;;;;;;;2.08;1.33;;;11.10;83.80;;;;;;5054586;28;20029;-70
2021/01/22 07:14:42;;;;;;;4.18;1.17;;;11.10;83.80;;;;;;5054919;28;20056;-71
2021/01/22 07:17:21;;;;;;;1.88;1.13;;;11.10;83.90;;;;;;5074035;28;20557;-71
2021/01/22 07:20:08;;;;;;;2.50;1.40;;;11.10;84.00;;;;;;5059446;28;20552;-71
2021/01/22 07:22:34;;;;;;;2.72;1.05;;;11.10;84.00;;;;;;5065805;28;20036;-72
2021/01/22 07:25:04;;;;;;;1.58;1.05;;;11.20;84.10;;;;;;5053964;28;20037;-71
2021/01/22 07:27:46;;;;;;;2.33;1.35;;;11.20;84.10;;;;;;5056448;28;20032;-71
2021/01/22 07:30:16;;;;;;;2.58;1.40;;;11.20;84.10;;;;;;5055473;28;20039;-71
2021/01/22 07:32:43;;;;;;;4.05;1.50;;;11.20;84.00;;;;;;5053382;28;20123;-71
2021/01/22 07:35:30;;;;;;;2.92;1.48;;;11.30;84.10;;;;;;5054135;28;20059;-70
2021/01/22 07:37:55;;;;;;;2.63;1.40;;;11.30;84.10;;;;;;5055822;28;20053;-70
2021/01/22 07:40:21;;;;;;;3.42;1.55;;;11.30;84.10;;;;;;5071441;28;20036;-68
2021/01/22 07:42:47;;;;;;;2.58;1.40;;;11.40;84.00;;;;;;5074059;28;20455;-68
2021/01/22 07:45:15;;;;;;;4.57;1.10;;;11.40;84.00;;;;;;5054971;28;20049;-67
2021/01/22 07:47:45;;;;;;;2.80;1.30;;;11.40;84.00;;;;;;5053604;28;20030;-67
2021/01/22 07:50:13;;;;;;;2.95;1.30;;;11.40;84.00;;;;;;5053361;28;20060;-68
2021/01/22 07:52:46;;;;;;;4.45;1.33;;;11.50;84.00;;;;;;5055568;28;20021;-67
2021/01/22 07:55:22;;;;;;;2.38;1.30;;;11.50;83.80;;;;;;5055804;28;20400;-68
2021/01/22 07:58:04;;;;;;;2.10;1.30;;;11.50;83.80;;;;;;5069912;28;20059;-67
2021/01/22 08:00:38;;;;;;;1.88;1.05;;;11.60;83.70;;;;;;5052422;28;20056;-68
2021/01/22 08:03:03;;;;;;;2.63;1.10;;;11.60;83.60;;;;;;5052168;28;20083;-68
2021/01/22 08:05:30;;;;;;;3.30;1.40;;;11.70;83.40;;;;;;5052485;28;20025;-68
2021/01/22 08:07:56;;;;;;;3.75;1.65;;;11.70;83.60;;;;;;5053539;28;20052;-69
2021/01/22 08:10:29;;;;;;;2.50;1.40;;;11.70;83.20;;;;;;5053169;28;20068;-69
2021/01/22 08:13:00;;;;;;;3.63;2.63;;;11.70;83.30;;;;;;5052263;28;20029;-69
2021/01/22 08:15:27;;;;;;;1.77;1.13;;;11.80;83.30;;;;;;5052573;28;20063;-69
2021/01/22 08:17:53;;;;;;;3.45;1.50;;;11.90;83.20;;;;;;5052368;28;20041;-68
2021/01/22 08:20:20;;;;;;;2.70;1.50;;;11.90;83.00;;;;;;5051894;28;20032;-68
2021/01/22 08:22:57;;;;;;;2.92;1.52;;;11.90;82.60;;;;;;5051452;28;20083;-68
2021/01/22 08:25:36;;;;;;;5.13;2.15;;;12.00;82.50;;;;;;5056207;28;20020;-69
2021/01/22 08:28:04;;;;;;;2.72;1.55;;;12.00;82.50;;;;;;5062700;28;20071;-70
2021/01/22 08:30:30;;;;;;;4.40;1.90;;;12.10;82.40;;;;;;5060408;28;20024;-69
2021/01/22 08:32:57;;;;;;;3.15;1.52;;;12.10;82.30;;;;;;5093004;28;20111;-68
2021/01/22 08:35:27;;;;;;;3.85;1.75;;;12.20;82.20;;;;;;5053028;28;20079;-68
2021/01/22 08:37:54;;;;;;;4.43;1.75;;;12.20;82.00;;;;;;5052078;28;20033;-69
2021/01/22 08:40:21;;;;;;;3.08;1.58;;;12.30;81.80;;;;;;5051874;28;20060;-68
2021/01/22 08:43:12;;;;;;;3.38;1.70;;;12.30;81.80;;;;;;5052417;28;20490;-68
2021/01/22 08:45:39;;;;;;;2.38;1.50;;;12.40;81.80;;;;;;5052135;28;20979;-68
2021/01/22 08:48:05;;;;;;;3.63;1.50;;;12.40;81.60;;;;;;5050845;28;20025;-69
2021/01/22 08:50:31;;;;;;;4.95;1.50;;;12.50;81.40;;;;;;5052546;28;20033;-69
2021/01/22 08:53:03;;;;;;;2.50;1.50;;;12.50;81.40;;;;;;5052653;28;20028;-69
2021/01/22 08:55:28;;;;;;;2.05;1.00;;;12.50;81.90;;;;;;5052574;28;20535;-69
2021/01/22 08:58:05;;;;;;;1.95;0.95;;;12.40;83.50;;;;;;5051029;28;20029;-70
2021/01/22 09:00:31;;;;;;;3.08;0.98;;;12.30;85.20;;;;;;5052404;28;20440;-69
2021/01/22 09:02:57;;;;;;;0.98;0.68;;;12.10;86.00;;;;;;5051371;28;20028;-70
2021/01/22 09:05:23;;;;;;;2.05;1.13;;;11.90;86.70;;;;;;5051175;28;20060;-69
2021/01/22 09:08:09;;;;;;;2.05;1.27;;;11.80;87.20;;;;;;5052803;28;20408;-69
2021/01/22 09:10:40;;;;;;;2.63;1.30;;;11.70;87.60;;;;;;5052016;28;20043;-69
2021/01/22 09:13:09;;;;;;;1.90;1.00;;;11.60;88.40;;;;;;5064258;28;20434;-69
2021/01/22 09:15:35;;;;;;;1.95;1.10;;;11.50;88.70;;;;;;5052264;28;20033;-69
2021/01/22 09:18:01;;;;;;;3.55;1.60;;;11.50;89.00;;;;;;5065157;28;20070;-70
2021/01/22 09:20:27;;;;;;;3.47;2.10;;;11.40;89.30;;;;;;5059519;28;20077;-69
2021/01/22 09:22:55;;;;;;;3.97;2.20;;;11.40;89.70;;;;;;5065679;28;20024;-70
2021/01/22 09:25:24;;;;;;;2.63;1.35;;;11.30;89.60;;;;;;5062255;28;20596;-69
2021/01/22 09:27:50;;;;;;;2.90;1.50;;;11.20;89.80;;;;;;5059246;28;20475;-69
2021/01/22 09:30:17;;;;;;;3.03;1.40;;;11.20;90.00;;;;;;5062775;28;20028;-69
2021/01/22 09:32:48;;;;;;;1.45;1.23;;;11.10;90.10;;;;;;5067098;28;20028;-70
2021/01/22 09:35:14;;;;;;;2.67;1.60;;;11.10;90.20;;;;;;5066869;28;20025;-70
2021/01/22 09:37:40;;;;;;;2.83;1.40;;;11.00;90.30;;;;;;5060124;28;20036;-70
2021/01/22 09:40:07;;;;;;;3.40;1.10;;;11.00;90.40;;;;;;5050860;28;20551;-69
2021/01/22 09:42:34;;;;;;;2.72;1.30;;;11.00;90.50;;;;;;5058003;28;20388;-69
2021/01/22 09:44:59;;;;;;;2.65;1.25;;;11.00;90.50;;;;;;5068496;28;20048;-68
2021/01/22 09:47:24;;;;;;;3.47;1.90;;;10.90;90.50;;;;;;5070268;28;20027;-69
2021/01/22 09:49:50;;;;;;;3.33;1.92;;;11.00;90.50;;;;;;5065165;28;20020;-69
2021/01/22 09:52:16;;;;;;;3.33;1.38;;;10.90;90.50;;;;;;5064043;28;20123;-69
2021/01/22 09:54:42;;;;;;;2.00;1.30;;;10.90;90.40;;;;;;5058165;28;20041;-69
2021/01/22 09:57:08;;;;;;;2.17;1.23;;;10.80;90.40;;;;;;5055654;28;20025;-69
2021/01/22 09:59:34;;;;;;;3.08;1.30;;;10.80;90.40;;;;;;5068552;28;20557;-69
2021/01/22 10:02:00;;;;;;;3.50;1.30;;;10.80;90.40;;;;;;5068838;28;20035;-69
2021/01/22 10:04:26;;;;;;;2.05;1.23;;;10.80;90.30;;;;;;5065765;28;20024;-70
2021/01/22 10:06:51;;;;;;;2.25;1.30;;;10.80;90.30;;;;;;5071980;28;20058;-70
2021/01/22 10:09:17;;;;;;;2.08;1.10;;;10.80;90.20;;;;;;5061112;28;20034;-70
2021/01/22 10:11:43;;;;;;;2.08;1.17;;;10.80;90.00;;;;;;5069424;28;20111;-71
2021/01/22 10:14:08;;;;;;;3.70;0.98;;;10.90;90.00;;;;;;5064586;28;20067;-71
2021/01/22 10:16:34;;;;;;;4.65;1.10;;;10.90;89.70;;;;;;5066300;28;20024;-72
2021/01/22 10:19:01;;;;;;;2.42;1.08;;;10.90;89.60;;;;;;5051945;28;20048;-72
2021/01/22 10:21:27;;;;;;;2.88;1.00;;;10.90;89.40;;;;;;5048851;28;20017;-73
2021/01/22 10:23:53;;;;;;;1.08;0.90;;;11.00;89.40;;;;;;5054501;28;20481;-73
2021/01/22 10:26:20;;;;;;;1.25;1.00;;;11.00;89.30;;;;;;5062089;28;20029;-73
2021/01/22 10:28:46;;;;;;;4.43;1.25;;;11.10;88.50;;;;;;5056116;28;20041;-73
2021/01/22 10:31:12;;;;;;;1.25;0.70;;;11.10;88.10;;;;;;5051378;28;20029;-73
2021/01/22 10:33:37;;;;;;;0.68;0.63;;;11.10;87.80;;;;;;5051317;28;20061;-73
2021/01/22 10:36:04;;;;;;;1.45;0.85;;;11.20;87.20;;;;;;5052460;28;20477;-72
2021/01/22 10:38:29;;;;;;;2.60;1.00;;;11.10;86.30;;;;;;5062127;28;20470;-71
2021/01/22 10:40:55;;;;;;;1.30;0.85;;;11.10;86.20;;;;;;5052438;28;20171;-69
2021/01/22 10:43:25;;;;;;;1.55;0.88;;;11.20;85.60;;;;;;5063702;28;20132;-70
2021/01/22 10:45:52;;;;;;;1.58;1.08;;;11.20;85.10;;;;;;5066595;28;20033;-79
2021/01/22 10:48:18;;;;;;;2.17;0.95;;;11.20;84.90;;;;;;5058328;28;20044;-72
2021/01/22 10:50:44;;;;;;;1.83;1.10;;;11.20;84.60;;;;;;5059939;28;20014;-73
2021/01/22 10:53:10;;;;;;;1.40;0.90;;;11.20;84.50;;;;;;5050803;28;20056;-70
2021/01/22 10:55:35;;;;;;;1.92;1.05;;;11.20;84.20;;;;;;5067698;28;20114;-71
2021/01/22 10:58:01;;;;;;;1.35;0.93;;;11.20;84.10;;;;;;5052842;28;20037;-72
2021/01/22 11:00:27;;;;;;;1.40;0.75;;;11.20;83.40;;;;;;5050980;28;20024;-70
2021/01/22 11:02:52;;;;;;;1.15;0.80;;;11.20;82.70;;;;;;5054182;28;20025;-72
2021/01/22 11:05:18;;;;;;;1.90;1.10;;;11.30;82.20;;;;;;5056468;28;20101;-73
2021/01/22 11:07:43;;;;;;;1.90;1.02;;;11.30;81.70;;;;;;5053880;28;20029;-73
2021/01/22 11:10:09;;;;;;;2.28;1.17;;;11.30;81.50;;;;;;5050079;28;20021;-71
2021/01/22 11:12:36;;;;;;;1.65;0.82;;;11.30;81.00;;;;;;5052714;28;20028;-71
2021/01/22 11:15:02;;;;;;;1.83;1.00;;;11.30;80.80;;;;;;5054197;28;20025;-71
2021/01/22 11:17:27;;;;;;;1.27;0.88;;;11.30;80.70;;;;;;5061434;28;20029;-71
2021/01/22 11:19:52;;;;;;;2.13;0.98;;;11.30;80.60;;;;;;5051565;28;20021;-73
2021/01/22 11:22:18;;;;;;;1.55;1.00;;;11.30;80.70;;;;;;5067619;28;20544;-72
2021/01/22 11:24:44;;;;;;;2.75;1.10;;;11.30;80.80;;;;;;5056285;28;20036;-72
2021/01/22 11:27:10;;;;;;;1.92;1.10;;;11.30;81.10;;;;;;5051673;28;20024;-72
2021/01/22 11:29:37;;;;;;;2.08;1.40;;;11.40;81.20;;;;;;5059053;28;20691;-72
2021/01/22 11:32:02;;;;;;;3.47;1.20;;;11.40;81.00;;;;;;5057516;28;20025;-72
2021/01/22 11:34:28;;;;;;;2.13;1.05;;;11.30;81.10;;;;;;5058662;28;20371;-74
2021/01/22 11:36:54;;;;;;;1.88;1.20;;;11.30;81.30;;;;;;5053134;28;20056;-72
2021/01/22 11:39:19;;;;;;;1.40;1.02;;;11.30;81.40;;;;;;5057365;28;20427;-72
2021/01/22 11:41:45;;;;;;;3.40;1.23;;;11.30;81.60;;;;;;5069776;28;20021;-72
2021/01/22 11:44:10;;;;;;;3.20;0.90;;;11.30;81.70;;;;;;5060311;28;20545;-72
2021/01/22 11:46:37;;;;;;;2.42;0.93;;;11.30;81.60;;;;;;5055679;28;20075;-72
2021/01/22 11:49:02;;;;;;;1.50;1.00;;;11.30;81.50;;;;;;5065773;28;20033;-71
2021/01/22 11:51:28;;;;;;;1.20;0.88;;;11.30;81.40;;;;;;5067051;28;20045;-71
2021/01/22 11:53:54;;;;;;;1.65;1.10;;;11.30;80.90;;;;;;5065879;28;20048;-72
2021/01/22 11:56:19;;;;;;;1.40;1.00;;;11.30;80.70;;;;;;5059379;28;20111;-72
2021/01/22 11:58:45;;;;;;;2.80;1.10;;;11.30;80.20;;;;;;5073618;28;20032;-74
2021/01/22 12:01:10;;;;;;;1.70;1.13;;;11.30;79.70;;;;;;5065714;28;20021;-72
2021/01/22 12:03:36;;;;;;;2.67;1.20;;;11.30;78.90;;;;;;5053748;28;20028;-72
2021/01/22 12:06:01;;;;;;;2.70;1.20;;;11.20;78.70;;;;;;5054581;28;20029;-72
2021/01/22 12:08:27;;;;;;;1.50;1.10;;;11.20;78.50;;;;;;5068655;28;20067;-72
2021/01/22 12:10:53;;;;;;;1.25;0.88;;;11.20;78.50;;;;;;5053214;28;20021;-71
2021/01/22 12:13:19;;;;;;;3.92;1.25;;;11.20;78.40;;;;;;5053948;28;20033;-71
2021/01/22 12:15:46;;;;;;;2.25;1.23;;;11.20;78.00;;;;;;5053541;28;20025;-72
2021/01/22 12:18:11;;;;;;;5.32;1.30;;;11.20;77.50;;;;;;5071529;28;20051;-72
2021/01/22 12:20:37;;;;;;;2.10;1.10;;;11.20;77.30;;;;;;5069805;28;20024;-72
2021/01/22 12:23:03;;;;;;;1.52;1.15;;;11.20;77.20;;;;;;5054067;28;20055;-72
2021/01/22 12:25:28;;;;;;;4.85;1.27;;;11.20;77.20;;;;;;5054021;28;20040;-72
2021/01/22 12:27:54;;;;;;;2.15;1.30;;;11.20;77.30;;;;;;5057257;28;20040;-73
2021/01/22 12:30:20;;;;;;;1.77;1.00;;;11.20;77.20;;;;;;5053736;28;20036;-73
2021/01/22 12:32:46;;;;;;;1.50;0.98;;;11.20;77.40;;;;;;5053358;28;20036;-73
2021/01/22 12:35:12;;;;;;;3.38;1.88;;;11.20;77.50;;;;;;5066182;28;20032;-73
2021/01/22 12:37:37;;;;;;;2.80;1.50;;;11.30;77.20;;;;;;5058987;28;20031;-73
2021/01/22 12:40:04;;;;;;;1.20;0.95;;;11.30;77.20;;;;;;5058439;28;20029;-73
2021/01/22 12:42:29;;;;;;;3.67;1.10;;;11.30;76.90;;;;;;5067621;28;20043;-74
2021/01/22 12:44:55;;;;;;;2.72;1.20;;;11.30;76.90;;;;;;5065728;28;20057;-73
2021/01/22 12:47:20;;;;;;;2.53;1.30;;;11.30;76.80;;;;;;5051399;28;20398;-74
2021/01/22 12:49:46;;;;;;;2.10;1.10;;;11.30;76.90;;;;;;5052703;28;20171;-74